MHT weather

Manchester-Boston Regional Airport
Manchester, New Hampshire, United States

Public forecast

Using degrees Fahrenheit for public forecast. Weather courtesy of forecast.io.

Current aviation weather report (METAR) for Manchester-Boston Regional Airport

Retrieved 2019/10/23 02:53 UTC (41 minutes ago):

KMHT 230253Z 06003KT 2SM -RA BR OVC005 12/12 A2994 RMK AO2 CIG 005V009 SLP150 P0001 60001 T01220117 58021

Aviation forecast (TAF) for Manchester-Boston Regional Airport

Retrieved 2019-10-23 00:21 UTC (3 hours ago):

TAF KMHT 222320Z 2300/2324 09010KT P6SM OVC008 FM230200 08009KT 3SM -DZ OVC008 FM230500 08007KT 2SM RA BR OVC004 FM231200 30010G17KT P6SM SCT015 BKN100